sensor_id;sensor_type;location;lat;lon;timestamp;temperature;humidity
36416;DHT22;22447;44.530;18.620;2024-03-08T00:02:17;6.40;99.90
36416;DHT22;22447;44.530;18.620;2024-03-08T00:04:43;6.30;99.90
36416;DHT22;22447;44.530;18.620;2024-03-08T00:07:10;6.40;99.90
36416;DHT22;22447;44.530;18.620;2024-03-08T00:09:36;6.60;99.90
36416;DHT22;22447;44.530;18.620;2024-03-08T00:12:02;6.70;99.90
36416;DHT22;22447;44.530;18.620;2024-03-08T00:14:27;6.80;99.90
36416;DHT22;22447;44.530;18.620;2024-03-08T00:16:53;6.90;99.90
36416;DHT22;22447;44.530;18.620;2024-03-08T00:19:20;6.70;99.90
36416;DHT22;22447;44.530;18.620;2024-03-08T00:21:45;6.70;99.90
36416;DHT22;22447;44.530;18.620;2024-03-08T00:24:11;6.60;99.90
36416;DHT22;22447;44.530;18.620;2024-03-08T00:26:37;6.60;99.90
36416;DHT22;22447;44.530;18.620;2024-03-08T00:29:03;6.70;99.90
36416;DHT22;22447;44.530;18.620;2024-03-08T00:31:30;6.70;99.90
36416;DHT22;22447;44.530;18.620;2024-03-08T00:33:57;6.80;99.90
36416;DHT22;22447;44.530;18.620;2024-03-08T00:36:23;6.80;99.90
36416;DHT22;22447;44.530;18.620;2024-03-08T00:38:48;6.70;99.90
36416;DHT22;22447;44.530;18.620;2024-03-08T00:41:14;6.70;99.90
36416;DHT22;22447;44.530;18.620;2024-03-08T00:43:40;6.70;99.90
36416;DHT22;22447;44.530;18.620;2024-03-08T00:46:06;6.70;99.90
36416;DHT22;22447;44.530;18.620;2024-03-08T00:48:32;6.70;99.90
36416;DHT22;22447;44.530;18.620;2024-03-08T00:50:58;6.60;99.90
36416;DHT22;22447;44.530;18.620;2024-03-08T00:53:23;6.50;99.90
36416;DHT22;22447;44.530;18.620;2024-03-08T00:55:49;6.50;99.90
36416;DHT22;22447;44.530;18.620;2024-03-08T00:58:15;6.50;99.90
36416;DHT22;22447;44.530;18.620;2024-03-08T01:00:41;6.70;99.90
36416;DHT22;22447;44.530;18.620;2024-03-08T01:03:07;6.70;99.90
36416;DHT22;22447;44.530;18.620;2024-03-08T01:05:33;6.60;99.90
36416;DHT22;22447;44.530;18.620;2024-03-08T01:08:01;6.50;99.90
36416;DHT22;22447;44.530;18.620;2024-03-08T01:10:29;6.40;99.90
36416;DHT22;22447;44.530;18.620;2024-03-08T01:12:55;6.40;99.90
36416;DHT22;22447;44.530;18.620;2024-03-08T01:15:23;6.30;99.90
36416;DHT22;22447;44.530;18.620;2024-03-08T01:17:49;6.30;99.90
36416;DHT22;22447;44.530;18.620;2024-03-08T01:20:15;6.40;99.90
36416;DHT22;22447;44.530;18.620;2024-03-08T01:22:41;6.60;99.90
36416;DHT22;22447;44.530;18.620;2024-03-08T01:25:07;6.60;99.90
36416;DHT22;22447;44.530;18.620;2024-03-08T01:27:35;6.50;99.90
36416;DHT22;22447;44.530;18.620;2024-03-08T01:30:03;6.50;99.90
36416;DHT22;22447;44.530;18.620;2024-03-08T01:32:29;6.50;99.90
36416;DHT22;22447;44.530;18.620;2024-03-08T01:34:55;6.40;99.90
36416;DHT22;22447;44.530;18.620;2024-03-08T01:37:21;6.40;99.90
36416;DHT22;22447;44.530;18.620;2024-03-08T01:39:46;6.40;99.90
36416;DHT22;22447;44.530;18.620;2024-03-08T01:42:13;6.40;99.90
36416;DHT22;22447;44.530;18.620;2024-03-08T01:44:40;6.30;99.90
36416;DHT22;22447;44.530;18.620;2024-03-08T01:47:07;6.20;99.90
36416;DHT22;22447;44.530;18.620;2024-03-08T01:49:33;6.20;99.90
36416;DHT22;22447;44.530;18.620;2024-03-08T01:51:59;6.30;99.90
36416;DHT22;22447;44.530;18.620;2024-03-08T01:54:26;6.30;99.90
36416;DHT22;22447;44.530;18.620;2024-03-08T01:56:52;6.20;99.90
36416;DHT22;22447;44.530;18.620;2024-03-08T01:59:19;6.20;99.90
36416;DHT22;22447;44.530;18.620;2024-03-08T02:01:45;6.30;99.90
36416;DHT22;22447;44.530;18.620;2024-03-08T02:04:11;6.30;99.90
36416;DHT22;22447;44.530;18.620;2024-03-08T02:06:36;6.30;99.90
36416;DHT22;22447;44.530;18.620;2024-03-08T02:09:03;6.30;99.90
36416;DHT22;22447;44.530;18.620;2024-03-08T02:11:34;6.30;99.90
36416;DHT22;22447;44.530;18.620;2024-03-08T02:14:00;6.30;99.90
36416;DHT22;22447;44.530;18.620;2024-03-08T02:16:26;6.20;99.90
36416;DHT22;22447;44.530;18.620;2024-03-08T02:18:51;6.10;99.90
36416;DHT22;22447;44.530;18.620;2024-03-08T02:21:18;6.10;99.90
36416;DHT22;22447;44.530;18.620;2024-03-08T02:23:44;6.00;99.90
36416;DHT22;22447;44.530;18.620;2024-03-08T02:26:10;6.10;99.90
36416;DHT22;22447;44.530;18.620;2024-03-08T02:28:36;6.10;99.90
36416;DHT22;22447;44.530;18.620;2024-03-08T02:31:02;6.10;99.90
36416;DHT22;22447;44.530;18.620;2024-03-08T02:33:33;6.10;99.90
36416;DHT22;22447;44.530;18.620;2024-03-08T02:35:59;6.10;99.90
36416;DHT22;22447;44.530;18.620;2024-03-08T02:38:25;6.10;99.90
36416;DHT22;22447;44.530;18.620;2024-03-08T02:40:52;6.20;99.90
36416;DHT22;22447;44.530;18.620;2024-03-08T02:43:19;6.20;99.90
36416;DHT22;22447;44.530;18.620;2024-03-08T02:45:46;6.10;99.90
36416;DHT22;22447;44.530;18.620;2024-03-08T02:48:13;6.20;99.90
36416;DHT22;22447;44.530;18.620;2024-03-08T02:50:39;6.20;99.90
36416;DHT22;22447;44.530;18.620;2024-03-08T02:53:06;6.30;99.90
36416;DHT22;22447;44.530;18.620;2024-03-08T02:55:32;6.30;99.90
36416;DHT22;22447;44.530;18.620;2024-03-08T02:58:02;6.40;99.90
36416;DHT22;22447;44.530;18.620;2024-03-08T03:00:29;6.40;99.90
36416;DHT22;22447;44.530;18.620;2024-03-08T03:02:57;6.30;99.90
36416;DHT22;22447;44.530;18.620;2024-03-08T03:05:23;6.30;99.90
36416;DHT22;22447;44.530;18.620;2024-03-08T03:07:50;6.30;99.90
36416;DHT22;22447;44.530;18.620;2024-03-08T03:10:19;6.30;99.90
36416;DHT22;22447;44.530;18.620;2024-03-08T03:12:48;6.20;99.90
36416;DHT22;22447;44.530;18.620;2024-03-08T03:15:14;6.30;99.90
36416;DHT22;22447;44.530;18.620;2024-03-08T03:17:46;6.20;99.90
36416;DHT22;22447;44.530;18.620;2024-03-08T03:20:12;6.10;99.90
36416;DHT22;22447;44.530;18.620;2024-03-08T03:22:51;6.10;99.90
36416;DHT22;22447;44.530;18.620;2024-03-08T03:25:19;6.10;99.90
36416;DHT22;22447;44.530;18.620;2024-03-08T03:27:54;6.20;99.90
36416;DHT22;22447;44.530;18.620;2024-03-08T03:30:25;6.20;99.90
36416;DHT22;22447;44.530;18.620;2024-03-08T03:33:02;6.20;99.90
36416;DHT22;22447;44.530;18.620;2024-03-08T03:35:32;6.10;99.90
36416;DHT22;22447;44.530;18.620;2024-03-08T03:37:58;6.10;99.90
36416;DHT22;22447;44.530;18.620;2024-03-08T03:40:34;6.10;99.90
36416;DHT22;22447;44.530;18.620;2024-03-08T03:43:00;6.10;99.90
36416;DHT22;22447;44.530;18.620;2024-03-08T03:45:27;6.10;99.90
36416;DHT22;22447;44.530;18.620;2024-03-08T03:47:53;6.10;99.90
36416;DHT22;22447;44.530;18.620;2024-03-08T03:50:19;6.00;99.90
36416;DHT22;22447;44.530;18.620;2024-03-08T03:52:46;6.10;99.90
36416;DHT22;22447;44.530;18.620;2024-03-08T03:55:13;6.20;99.90
36416;DHT22;22447;44.530;18.620;2024-03-08T03:57:39;6.20;99.90
36416;DHT22;22447;44.530;18.620;2024-03-08T04:00:07;6.20;99.90
36416;DHT22;22447;44.530;18.620;2024-03-08T04:02:40;6.20;99.90
36416;DHT22;22447;44.530;18.620;2024-03-08T04:05:07;6.20;99.90
36416;DHT22;22447;44.530;18.620;2024-03-08T04:07:34;6.10;99.90
36416;DHT22;22447;44.530;18.620;2024-03-08T04:10:02;6.10;99.90
36416;DHT22;22447;44.530;18.620;2024-03-08T04:12:28;6.10;99.90
36416;DHT22;22447;44.530;18.620;2024-03-08T04:14:57;6.20;99.90
36416;DHT22;22447;44.530;18.620;2024-03-08T04:17:23;6.20;99.90
36416;DHT22;22447;44.530;18.620;2024-03-08T04:19:52;6.20;99.90
36416;DHT22;22447;44.530;18.620;2024-03-08T04:22:19;6.20;99.90
36416;DHT22;22447;44.530;18.620;2024-03-08T04:24:45;6.30;99.90
36416;DHT22;22447;44.530;18.620;2024-03-08T04:27:12;6.40;99.90
36416;DHT22;22447;44.530;18.620;2024-03-08T04:29:37;6.40;99.90
36416;DHT22;22447;44.530;18.620;2024-03-08T04:32:04;6.30;99.90
36416;DHT22;22447;44.530;18.620;2024-03-08T04:34:31;6.20;99.90
36416;DHT22;22447;44.530;18.620;2024-03-08T04:37:00;6.20;99.90
36416;DHT22;22447;44.530;18.620;2024-03-08T04:39:26;6.20;99.90
36416;DHT22;22447;44.530;18.620;2024-03-08T04:41:59;6.10;99.90
36416;DHT22;22447;44.530;18.620;2024-03-08T04:44:29;6.10;99.90
36416;DHT22;22447;44.530;18.620;2024-03-08T04:46:55;6.20;99.90
36416;DHT22;22447;44.530;18.620;2024-03-08T04:49:21;6.20;99.90
36416;DHT22;22447;44.530;18.620;2024-03-08T04:51:48;6.20;99.90
36416;DHT22;22447;44.530;18.620;2024-03-08T04:54:14;6.10;99.90
36416;DHT22;22447;44.530;18.620;2024-03-08T04:56:40;6.10;99.90
36416;DHT22;22447;44.530;18.620;2024-03-08T04:59:05;6.20;99.90
36416;DHT22;22447;44.530;18.620;2024-03-08T05:01:34;6.20;99.90
36416;DHT22;22447;44.530;18.620;2024-03-08T05:04:00;6.10;99.90
36416;DHT22;22447;44.530;18.620;2024-03-08T05:06:25;6.20;99.90
36416;DHT22;22447;44.530;18.620;2024-03-08T05:08:51;6.20;99.90
36416;DHT22;22447;44.530;18.620;2024-03-08T05:11:17;6.10;99.90
36416;DHT22;22447;44.530;18.620;2024-03-08T05:13:43;6.10;99.90
36416;DHT22;22447;44.530;18.620;2024-03-08T05:16:10;6.20;99.90
36416;DHT22;22447;44.530;18.620;2024-03-08T05:18:36;6.30;99.90
36416;DHT22;22447;44.530;18.620;2024-03-08T05:21:02;6.30;99.90
36416;DHT22;22447;44.530;18.620;2024-03-08T05:23:30;6.20;99.90
36416;DHT22;22447;44.530;18.620;2024-03-08T05:25:56;6.10;99.90
36416;DHT22;22447;44.530;18.620;2024-03-08T05:28:22;6.20;99.90
36416;DHT22;22447;44.530;18.620;2024-03-08T05:30:48;6.20;99.90
36416;DHT22;22447;44.530;18.620;2024-03-08T05:33:14;6.20;99.90
36416;DHT22;22447;44.530;18.620;2024-03-08T05:35:40;6.10;99.90
36416;DHT22;22447;44.530;18.620;2024-03-08T05:38:06;6.10;99.90
36416;DHT22;22447;44.530;18.620;2024-03-08T05:40:32;6.10;99.90
36416;DHT22;22447;44.530;18.620;2024-03-08T05:42:59;6.20;99.90
36416;DHT22;22447;44.530;18.620;2024-03-08T05:45:26;6.20;99.90
36416;DHT22;22447;44.530;18.620;2024-03-08T05:47:52;6.30;99.90
36416;DHT22;22447;44.530;18.620;2024-03-08T05:50:18;6.30;99.90
36416;DHT22;22447;44.530;18.620;2024-03-08T05:52:45;6.30;99.90
36416;DHT22;22447;44.530;18.620;2024-03-08T05:55:13;6.40;99.90
36416;DHT22;22447;44.530;18.620;2024-03-08T05:57:41;6.50;99.90
36416;DHT22;22447;44.530;18.620;2024-03-08T06:00:08;6.50;99.90
36416;DHT22;22447;44.530;18.620;2024-03-08T06:02:39;6.50;99.90
36416;DHT22;22447;44.530;18.620;2024-03-08T06:05:10;6.50;99.90
36416;DHT22;22447;44.530;18.620;2024-03-08T06:07:37;6.50;99.90
36416;DHT22;22447;44.530;18.620;2024-03-08T06:10:08;6.60;99.90
36416;DHT22;22447;44.530;18.620;2024-03-08T06:12:36;6.60;99.90
36416;DHT22;22447;44.530;18.620;2024-03-08T06:15:09;6.60;99.90
36416;DHT22;22447;44.530;18.620;2024-03-08T06:17:38;6.60;99.90
36416;DHT22;22447;44.530;18.620;2024-03-08T06:20:04;6.60;99.90
36416;DHT22;22447;44.530;18.620;2024-03-08T06:22:39;6.70;99.90
36416;DHT22;22447;44.530;18.620;2024-03-08T06:25:09;6.70;99.90
36416;DHT22;22447;44.530;18.620;2024-03-08T06:27:36;6.80;99.90
36416;DHT22;22447;44.530;18.620;2024-03-08T06:30:02;6.80;99.90
36416;DHT22;22447;44.530;18.620;2024-03-08T06:32:30;6.90;99.90
36416;DHT22;22447;44.530;18.620;2024-03-08T06:35:02;6.90;99.90
36416;DHT22;22447;44.530;18.620;2024-03-08T06:37:29;7.00;99.90
36416;DHT22;22447;44.530;18.620;2024-03-08T06:39:57;7.00;99.90
36416;DHT22;22447;44.530;18.620;2024-03-08T06:42:23;6.90;99.90
36416;DHT22;22447;44.530;18.620;2024-03-08T06:44:48;7.00;99.90
36416;DHT22;22447;44.530;18.620;2024-03-08T06:47:15;7.10;99.90
36416;DHT22;22447;44.530;18.620;2024-03-08T06:49:44;7.10;99.90
36416;DHT22;22447;44.530;18.620;2024-03-08T06:52:11;7.20;99.90
36416;DHT22;22447;44.530;18.620;2024-03-08T06:54:37;7.00;99.90
36416;DHT22;22447;44.530;18.620;2024-03-08T06:57:03;7.00;99.90
36416;DHT22;22447;44.530;18.620;2024-03-08T06:59:31;7.00;99.90
36416;DHT22;22447;44.530;18.620;2024-03-08T07:01:57;7.10;99.90
36416;DHT22;22447;44.530;18.620;2024-03-08T07:04:25;7.10;99.90
36416;DHT22;22447;44.530;18.620;2024-03-08T07:06:55;7.00;99.90
36416;DHT22;22447;44.530;18.620;2024-03-08T07:09:23;7.10;99.90
36416;DHT22;22447;44.530;18.620;2024-03-08T07:11:50;7.10;99.90
36416;DHT22;22447;44.530;18.620;2024-03-08T07:14:25;7.10;99.90
36416;DHT22;22447;44.530;18.620;2024-03-08T07:16:51;7.00;99.90
36416;DHT22;22447;44.530;18.620;2024-03-08T07:19:17;7.00;99.90
36416;DHT22;22447;44.530;18.620;2024-03-08T07:21:46;7.20;99.90
36416;DHT22;22447;44.530;18.620;2024-03-08T07:24:14;7.10;99.90
36416;DHT22;22447;44.530;18.620;2024-03-08T07:26:43;7.20;99.90
36416;DHT22;22447;44.530;18.620;2024-03-08T07:29:09;7.20;99.90
36416;DHT22;22447;44.530;18.620;2024-03-08T07:31:35;7.20;99.90
36416;DHT22;22447;44.530;18.620;2024-03-08T07:34:16;7.20;99.90
36416;DHT22;22447;44.530;18.620;2024-03-08T07:36:42;7.40;99.90
36416;DHT22;22447;44.530;18.620;2024-03-08T07:39:08;7.50;99.90
36416;DHT22;22447;44.530;18.620;2024-03-08T07:41:38;7.50;99.90
36416;DHT22;22447;44.530;18.620;2024-03-08T07:44:07;7.60;99.90
36416;DHT22;22447;44.530;18.620;2024-03-08T07:46:32;7.60;99.90
36416;DHT22;22447;44.530;18.620;2024-03-08T07:49:00;7.70;99.90
36416;DHT22;22447;44.530;18.620;2024-03-08T07:51:26;7.70;99.90
36416;DHT22;22447;44.530;18.620;2024-03-08T07:53:52;7.60;99.90
36416;DHT22;22447;44.530;18.620;2024-03-08T07:56:17;7.70;99.90
36416;DHT22;22447;44.530;18.620;2024-03-08T07:58:45;7.70;99.90
36416;DHT22;22447;44.530;18.620;2024-03-08T08:01:17;8.00;99.90
36416;DHT22;22447;44.530;18.620;2024-03-08T08:03:43;8.10;99.90
36416;DHT22;22447;44.530;18.620;2024-03-08T08:06:09;8.20;99.90
36416;DHT22;22447;44.530;18.620;2024-03-08T08:08:44;8.20;99.90
36416;DHT22;22447;44.530;18.620;2024-03-08T08:11:10;8.20;99.90
36416;DHT22;22447;44.530;18.620;2024-03-08T08:13:41;8.20;99.90
36416;DHT22;22447;44.530;18.620;2024-03-08T08:16:09;8.20;99.90
36416;DHT22;22447;44.530;18.620;2024-03-08T08:18:36;8.30;99.90
36416;DHT22;22447;44.530;18.620;2024-03-08T08:21:02;8.30;99.90
36416;DHT22;22447;44.530;18.620;2024-03-08T08:23:30;8.30;99.90
36416;DHT22;22447;44.530;18.620;2024-03-08T08:25:56;8.40;99.90
36416;DHT22;22447;44.530;18.620;2024-03-08T08:28:21;8.50;99.90
36416;DHT22;22447;44.530;18.620;2024-03-08T08:30:47;8.60;99.90
36416;DHT22;22447;44.530;18.620;2024-03-08T08:33:14;8.60;99.90
36416;DHT22;22447;44.530;18.620;2024-03-08T08:35:40;8.60;99.90
36416;DHT22;22447;44.530;18.620;2024-03-08T08:38:06;8.70;99.90
36416;DHT22;22447;44.530;18.620;2024-03-08T08:40:35;8.80;99.90
36416;DHT22;22447;44.530;18.620;2024-03-08T08:43:02;8.70;99.90
36416;DHT22;22447;44.530;18.620;2024-03-08T08:45:31;8.80;99.90
36416;DHT22;22447;44.530;18.620;2024-03-08T08:47:57;8.80;99.90
36416;DHT22;22447;44.530;18.620;2024-03-08T08:50:26;8.60;99.90
36416;DHT22;22447;44.530;18.620;2024-03-08T08:52:54;8.70;99.90
36416;DHT22;22447;44.530;18.620;2024-03-08T08:55:20;8.80;99.90
36416;DHT22;22447;44.530;18.620;2024-03-08T08:57:47;8.80;99.90
36416;DHT22;22447;44.530;18.620;2024-03-08T09:00:18;8.80;99.90
36416;DHT22;22447;44.530;18.620;2024-03-08T09:02:46;8.90;99.90
36416;DHT22;22447;44.530;18.620;2024-03-08T09:05:12;8.90;99.90
36416;DHT22;22447;44.530;18.620;2024-03-08T09:07:45;8.90;99.90
36416;DHT22;22447;44.530;18.620;2024-03-08T09:10:11;8.90;99.90
36416;DHT22;22447;44.530;18.620;2024-03-08T09:12:40;8.80;99.90
36416;DHT22;22447;44.530;18.620;2024-03-08T09:15:07;9.00;99.90
36416;DHT22;22447;44.530;18.620;2024-03-08T09:17:39;9.00;99.90
36416;DHT22;22447;44.530;18.620;2024-03-08T09:20:10;9.00;99.90
36416;DHT22;22447;44.530;18.620;2024-03-08T09:22:46;9.20;99.90
36416;DHT22;22447;44.530;18.620;2024-03-08T09:25:11;9.20;99.90
36416;DHT22;22447;44.530;18.620;2024-03-08T09:27:37;9.20;99.90
36416;DHT22;22447;44.530;18.620;2024-03-08T09:30:05;9.00;99.90
36416;DHT22;22447;44.530;18.620;2024-03-08T09:32:34;9.10;99.90
36416;DHT22;22447;44.530;18.620;2024-03-08T09:35:00;9.50;99.90
36416;DHT22;22447;44.530;18.620;2024-03-08T09:37:26;9.70;99.90
36416;DHT22;22447;44.530;18.620;2024-03-08T09:39:52;9.90;99.90
36416;DHT22;22447;44.530;18.620;2024-03-08T09:42:19;9.90;99.90
36416;DHT22;22447;44.530;18.620;2024-03-08T09:44:46;10.20;99.90
36416;DHT22;22447;44.530;18.620;2024-03-08T09:47:15;10.40;99.90
36416;DHT22;22447;44.530;18.620;2024-03-08T09:49:42;10.40;99.90
36416;DHT22;22447;44.530;18.620;2024-03-08T09:52:09;10.50;99.90
36416;DHT22;22447;44.530;18.620;2024-03-08T09:54:36;10.60;99.90
36416;DHT22;22447;44.530;18.620;2024-03-08T09:57:04;10.50;99.90
36416;DHT22;22447;44.530;18.620;2024-03-08T09:59:30;10.60;99.90
36416;DHT22;22447;44.530;18.620;2024-03-08T10:02:15;10.80;99.90
36416;DHT22;22447;44.530;18.620;2024-03-08T10:04:42;10.90;99.90
36416;DHT22;22447;44.530;18.620;2024-03-08T10:07:08;11.10;99.90
36416;DHT22;22447;44.530;18.620;2024-03-08T10:09:34;11.20;99.90
36416;DHT22;22447;44.530;18.620;2024-03-08T10:12:00;10.90;98.50
36416;DHT22;22447;44.530;18.620;2024-03-08T10:14:26;10.80;98.90
36416;DHT22;22447;44.530;18.620;2024-03-08T10:16:52;11.00;99.20
36416;DHT22;22447;44.530;18.620;2024-03-08T10:19:18;10.90;97.80
36416;DHT22;22447;44.530;18.620;2024-03-08T10:21:48;10.90;98.40
36416;DHT22;22447;44.530;18.620;2024-03-08T10:24:14;10.80;97.70
36416;DHT22;22447;44.530;18.620;2024-03-08T10:26:40;10.90;97.70
36416;DHT22;22447;44.530;18.620;2024-03-08T10:29:09;11.10;98.40
36416;DHT22;22447;44.530;18.620;2024-03-08T10:31:35;11.20;98.40
36416;DHT22;22447;44.530;18.620;2024-03-08T10:34:01;11.40;97.80
36416;DHT22;22447;44.530;18.620;2024-03-08T10:36:28;11.40;96.50
36416;DHT22;22447;44.530;18.620;2024-03-08T10:38:56;11.60;97.10
36416;DHT22;22447;44.530;18.620;2024-03-08T10:41:24;11.40;96.50
36416;DHT22;22447;44.530;18.620;2024-03-08T10:49:17;11.50;95.60
36416;DHT22;22447;44.530;18.620;2024-03-08T10:51:44;11.40;94.80
36416;DHT22;22447;44.530;18.620;2024-03-08T10:54:12;11.40;96.80
36416;DHT22;22447;44.530;18.620;2024-03-08T10:56:38;11.20;96.20
36416;DHT22;22447;44.530;18.620;2024-03-08T10:59:09;11.50;96.20
36416;DHT22;22447;44.530;18.620;2024-03-08T11:01:36;11.60;95.90
36416;DHT22;22447;44.530;18.620;2024-03-08T11:04:04;11.60;95.20
36416;DHT22;22447;44.530;18.620;2024-03-08T11:09:49;11.50;94.00
36416;DHT22;22447;44.530;18.620;2024-03-08T11:11:49;11.70;95.00
36416;DHT22;22447;44.530;18.620;2024-03-08T11:14:43;11.90;95.60
36416;DHT22;22447;44.530;18.620;2024-03-08T11:17:10;11.40;94.30
36416;DHT22;22447;44.530;18.620;2024-03-08T11:19:35;11.60;94.00
36416;DHT22;22447;44.530;18.620;2024-03-08T11:22:03;11.30;94.30
36416;DHT22;22447;44.530;18.620;2024-03-08T11:24:37;11.40;93.80
36416;DHT22;22447;44.530;18.620;2024-03-08T11:27:06;11.40;95.20
36416;DHT22;22447;44.530;18.620;2024-03-08T11:29:36;11.50;94.60
36416;DHT22;22447;44.530;18.620;2024-03-08T11:32:11;11.70;95.00
36416;DHT22;22447;44.530;18.620;2024-03-08T11:34:41;11.90;94.80
36416;DHT22;22447;44.530;18.620;2024-03-08T11:37:15;12.30;94.30
36416;DHT22;22447;44.530;18.620;2024-03-08T11:39:52;12.70;94.20
36416;DHT22;22447;44.530;18.620;2024-03-08T11:42:19;12.70;90.70
36416;DHT22;22447;44.530;18.620;2024-03-08T11:44:46;12.80;90.40
36416;DHT22;22447;44.530;18.620;2024-03-08T11:47:13;12.70;90.80
36416;DHT22;22447;44.530;18.620;2024-03-08T11:49:40;12.90;91.60
36416;DHT22;22447;44.530;18.620;2024-03-08T11:52:13;12.40;91.30
36416;DHT22;22447;44.530;18.620;2024-03-08T11:54:47;12.60;91.70
36416;DHT22;22447;44.530;18.620;2024-03-08T11:57:18;12.60;91.60
36416;DHT22;22447;44.530;18.620;2024-03-08T11:59:54;12.50;91.90
36416;DHT22;22447;44.530;18.620;2024-03-08T12:02:22;12.40;91.70
36416;DHT22;22447;44.530;18.620;2024-03-08T12:04:56;12.30;91.30
36416;DHT22;22447;44.530;18.620;2024-03-08T12:07:23;12.20;92.40
36416;DHT22;22447;44.530;18.620;2024-03-08T12:12:48;12.40;92.10
36416;DHT22;22447;44.530;18.620;2024-03-08T12:15:16;12.50;93.80
36416;DHT22;22447;44.530;18.620;2024-03-08T12:17:44;12.70;92.50
36416;DHT22;22447;44.530;18.620;2024-03-08T12:20:27;12.60;92.00
36416;DHT22;22447;44.530;18.620;2024-03-08T12:22:57;12.80;91.40
36416;DHT22;22447;44.530;18.620;2024-03-08T12:25:30;12.70;92.20
36416;DHT22;22447;44.530;18.620;2024-03-08T12:28:06;12.60;90.40
36416;DHT22;22447;44.530;18.620;2024-03-08T12:30:33;12.70;90.90
36416;DHT22;22447;44.530;18.620;2024-03-08T12:33:00;12.80;91.40
36416;DHT22;22447;44.530;18.620;2024-03-08T12:35:27;12.90;90.00
36416;DHT22;22447;44.530;18.620;2024-03-08T12:37:57;12.40;90.40
36416;DHT22;22447;44.530;18.620;2024-03-08T12:42:55;12.90;90.20
36416;DHT22;22447;44.530;18.620;2024-03-08T12:45:22;13.00;88.30
36416;DHT22;22447;44.530;18.620;2024-03-08T12:47:53;13.30;89.60
36416;DHT22;22447;44.530;18.620;2024-03-08T12:50:20;13.40;90.30
36416;DHT22;22447;44.530;18.620;2024-03-08T12:52:47;13.80;89.30
36416;DHT22;22447;44.530;18.620;2024-03-08T12:55:14;14.40;88.10
36416;DHT22;22447;44.530;18.620;2024-03-08T12:57:43;14.50;86.20
36416;DHT22;22447;44.530;18.620;2024-03-08T13:00:09;14.40;82.20
36416;DHT22;22447;44.530;18.620;2024-03-08T13:02:39;14.20;83.90
36416;DHT22;22447;44.530;18.620;2024-03-08T13:05:06;13.90;83.20
36416;DHT22;22447;44.530;18.620;2024-03-08T13:07:35;13.80;84.60
36416;DHT22;22447;44.530;18.620;2024-03-08T13:10:03;13.90;83.90
36416;DHT22;22447;44.530;18.620;2024-03-08T13:12:30;13.70;81.60
36416;DHT22;22447;44.530;18.620;2024-03-08T13:14:56;13.50;83.10
36416;DHT22;22447;44.530;18.620;2024-03-08T13:17:22;13.50;86.60
36416;DHT22;22447;44.530;18.620;2024-03-08T13:19:48;13.60;83.90
36416;DHT22;22447;44.530;18.620;2024-03-08T13:22:14;13.60;81.70
36416;DHT22;22447;44.530;18.620;2024-03-08T13:24:42;13.70;79.50
36416;DHT22;22447;44.530;18.620;2024-03-08T13:27:11;13.60;78.10
36416;DHT22;22447;44.530;18.620;2024-03-08T13:29:46;13.80;80.20
36416;DHT22;22447;44.530;18.620;2024-03-08T13:32:13;14.00;79.10
36416;DHT22;22447;44.530;18.620;2024-03-08T13:34:43;14.10;80.00
36416;DHT22;22447;44.530;18.620;2024-03-08T13:37:09;14.10;79.10
36416;DHT22;22447;44.530;18.620;2024-03-08T13:39:36;14.80;80.80
36416;DHT22;22447;44.530;18.620;2024-03-08T13:42:24;15.60;78.90
36416;DHT22;22447;44.530;18.620;2024-03-08T13:44:49;15.60;73.00
36416;DHT22;22447;44.530;18.620;2024-03-08T13:47:16;15.70;70.20
36416;DHT22;22447;44.530;18.620;2024-03-08T13:49:45;14.90;70.60
36416;DHT22;22447;44.530;18.620;2024-03-08T13:52:11;15.00;71.80
36416;DHT22;22447;44.530;18.620;2024-03-08T13:54:40;14.80;71.30
36416;DHT22;22447;44.530;18.620;2024-03-08T13:57:07;14.20;73.90
36416;DHT22;22447;44.530;18.620;2024-03-08T13:59:33;14.20;74.70
36416;DHT22;22447;44.530;18.620;2024-03-08T14:02:01;14.20;75.20
36416;DHT22;22447;44.530;18.620;2024-03-08T14:04:30;14.10;75.00
36416;DHT22;22447;44.530;18.620;2024-03-08T14:06:56;13.90;75.50
36416;DHT22;22447;44.530;18.620;2024-03-08T14:09:26;13.90;76.40
36416;DHT22;22447;44.530;18.620;2024-03-08T14:11:55;13.80;77.00
36416;DHT22;22447;44.530;18.620;2024-03-08T14:14:22;13.80;77.00
36416;DHT22;22447;44.530;18.620;2024-03-08T14:16:51;13.60;76.40
36416;DHT22;22447;44.530;18.620;2024-03-08T14:19:23;13.70;75.70
36416;DHT22;22447;44.530;18.620;2024-03-08T14:21:49;13.70;76.50
36416;DHT22;22447;44.530;18.620;2024-03-08T14:24:17;13.50;76.50
36416;DHT22;22447;44.530;18.620;2024-03-08T14:26:44;13.50;76.70
36416;DHT22;22447;44.530;18.620;2024-03-08T14:29:10;13.50;75.40
36416;DHT22;22447;44.530;18.620;2024-03-08T14:31:37;13.50;74.10
36416;DHT22;22447;44.530;18.620;2024-03-08T14:34:03;13.40;74.60
36416;DHT22;22447;44.530;18.620;2024-03-08T14:36:31;13.20;75.50
36416;DHT22;22447;44.530;18.620;2024-03-08T14:38:57;13.30;76.90
36416;DHT22;22447;44.530;18.620;2024-03-08T14:41:23;13.10;76.50
36416;DHT22;22447;44.530;18.620;2024-03-08T14:43:49;13.00;78.10
36416;DHT22;22447;44.530;18.620;2024-03-08T14:46:18;13.20;77.30
36416;DHT22;22447;44.530;18.620;2024-03-08T14:48:55;13.30;79.90
36416;DHT22;22447;44.530;18.620;2024-03-08T14:51:24;13.10;76.30
36416;DHT22;22447;44.530;18.620;2024-03-08T14:53:55;13.10;78.20
36416;DHT22;22447;44.530;18.620;2024-03-08T14:56:21;13.10;78.10
36416;DHT22;22447;44.530;18.620;2024-03-08T14:58:48;13.20;78.20
36416;DHT22;22447;44.530;18.620;2024-03-08T15:01:18;13.30;77.50
36416;DHT22;22447;44.530;18.620;2024-03-08T15:03:49;13.30;78.90
36416;DHT22;22447;44.530;18.620;2024-03-08T15:06:16;13.20;79.10
36416;DHT22;22447;44.530;18.620;2024-03-08T15:08:46;13.10;80.00
36416;DHT22;22447;44.530;18.620;2024-03-08T15:11:13;13.10;81.70
36416;DHT22;22447;44.530;18.620;2024-03-08T15:13:49;13.00;81.50
36416;DHT22;22447;44.530;18.620;2024-03-08T15:16:19;12.60;81.30
36416;DHT22;22447;44.530;18.620;2024-03-08T15:18:47;12.70;83.30
36416;DHT22;22447;44.530;18.620;2024-03-08T15:21:14;12.50;82.30
36416;DHT22;22447;44.530;18.620;2024-03-08T15:23:45;12.50;83.80
36416;DHT22;22447;44.530;18.620;2024-03-08T15:26:15;12.40;84.00
36416;DHT22;22447;44.530;18.620;2024-03-08T15:28:43;12.20;84.30
36416;DHT22;22447;44.530;18.620;2024-03-08T15:31:11;12.10;84.70
36416;DHT22;22447;44.530;18.620;2024-03-08T15:33:39;12.20;85.50
36416;DHT22;22447;44.530;18.620;2024-03-08T15:36:14;12.00;85.70
36416;DHT22;22447;44.530;18.620;2024-03-08T15:38:42;11.90;86.20
36416;DHT22;22447;44.530;18.620;2024-03-08T15:41:15;11.80;86.30
36416;DHT22;22447;44.530;18.620;2024-03-08T15:43:43;11.80;87.70